Time;durP1;ratioP1;P1;durP2;ratioP2;P2;SDS_P1;SDS_P2;PMS_P1;PMS_P2;Temp;Humidity;BMP_temperature;BMP_pressure;BME280_temperature;BME280_humidity;BME280_pressure;Samples;Min_cycle;Max_cycle;Signal;HPM_P1;HPM_P2
2024/01/07 00:02:10;;;;;;;10.38;5.32;;;2.60;79.20;;;;;;6209432;23;20036;-70
2024/01/07 00:04:38;;;;;;;10.67;5.67;;;2.60;79.00;;;;;;6233928;22;20101;-72
2024/01/07 00:07:05;;;;;;;11.68;5.45;;;2.60;79.30;;;;;;6233606;22;20317;-73
2024/01/07 00:09:33;;;;;;;12.50;5.70;;;2.60;79.00;;;;;;6233874;22;20032;-70
2024/01/07 00:11:59;;;;;;;11.48;6.10;;;2.50;79.00;;;;;;6210205;23;20057;-72
2024/01/07 00:14:26;;;;;;;11.80;5.35;;;2.50;79.00;;;;;;6234116;22;20025;-70
2024/01/07 00:16:53;;;;;;;11.30;5.33;;;2.50;79.40;;;;;;6210550;23;20805;-71
2024/01/07 00:19:20;;;;;;;11.38;5.70;;;2.50;79.20;;;;;;6210882;23;20079;-68
2024/01/07 00:21:49;;;;;;;11.02;5.82;;;2.50;79.50;;;;;;6183475;23;20032;-69
2024/01/07 00:24:17;;;;;;;11.68;5.63;;;2.50;78.80;;;;;;6233452;22;20768;-71
2024/01/07 00:26:43;;;;;;;10.80;5.47;;;2.50;78.70;;;;;;6183386;23;20021;-69
2024/01/07 00:29:10;;;;;;;11.63;5.20;;;2.50;78.70;;;;;;6210036;23;20705;-69
2024/01/07 00:31:37;;;;;;;12.15;5.80;;;2.50;78.70;;;;;;6234671;22;20025;-71
2024/01/07 00:34:04;;;;;;;11.98;5.80;;;2.50;78.90;;;;;;6237240;22;20021;-71
2024/01/07 00:36:31;;;;;;;11.68;5.57;;;2.50;78.90;;;;;;6210295;23;20083;-70
2024/01/07 00:39:00;;;;;;;10.75;5.72;;;2.50;79.20;;;;;;6212802;23;20033;-70
2024/01/07 00:41:27;;;;;;;13.73;5.80;;;2.50;79.10;;;;;;6210805;23;20025;-70
2024/01/07 00:43:54;;;;;;;12.38;5.65;;;2.50;79.10;;;;;;6210400;23;20029;-69
2024/01/07 00:46:21;;;;;;;11.57;5.80;;;2.50;79.20;;;;;;6184405;23;20021;-69
2024/01/07 00:48:48;;;;;;;13.70;5.97;;;2.50;79.20;;;;;;6236275;22;20083;-71
2024/01/07 00:51:15;;;;;;;11.90;5.32;;;2.50;79.30;;;;;;6213050;23;20100;-69
2024/01/07 00:53:42;;;;;;;12.17;5.43;;;2.50;79.80;;;;;;6186472;23;20025;-69
2024/01/07 00:56:10;;;;;;;13.38;6.35;;;2.50;79.60;;;;;;6186240;23;20051;-70
2024/01/07 00:58:37;;;;;;;12.55;5.72;;;2.50;79.40;;;;;;6185259;23;20025;-69
2024/01/07 01:01:04;;;;;;;12.10;5.70;;;2.50;79.40;;;;;;6233782;22;20100;-69
2024/01/07 01:03:31;;;;;;;11.60;6.13;;;2.60;79.70;;;;;;6183760;23;20102;-72
2024/01/07 01:05:59;;;;;;;11.20;5.87;;;2.70;79.50;;;;;;6233402;22;20024;-70
2024/01/07 01:08:26;;;;;;;12.45;6.10;;;2.70;79.50;;;;;;6209447;23;20025;-71
2024/01/07 01:10:53;;;;;;;13.02;6.50;;;2.80;79.50;;;;;;6183220;23;20485;-70
2024/01/07 01:13:22;;;;;;;11.85;6.10;;;2.80;79.50;;;;;;6183458;23;20021;-69
2024/01/07 01:15:49;;;;;;;12.00;6.22;;;2.80;79.40;;;;;;6208423;23;20079;-70
2024/01/07 01:18:17;;;;;;;11.13;5.40;;;2.80;79.40;;;;;;6183625;23;20028;-70
2024/01/07 01:20:44;;;;;;;11.40;5.32;;;2.80;79.70;;;;;;6233957;22;20079;-69
2024/01/07 01:23:11;;;;;;;13.80;6.30;;;2.90;79.70;;;;;;6208383;23;20025;-71
2024/01/07 01:25:39;;;;;;;10.57;5.53;;;2.90;79.60;;;;;;6183299;23;20106;-72
2024/01/07 01:28:06;;;;;;;10.55;5.47;;;2.90;79.70;;;;;;6209453;23;20036;-71
2024/01/07 01:30:35;;;;;;;11.00;5.33;;;2.90;79.40;;;;;;6208965;23;20057;-72
2024/01/07 01:33:02;;;;;;;11.98;5.65;;;2.90;79.10;;;;;;6184147;23;20176;-70
2024/01/07 01:35:29;;;;;;;10.60;6.03;;;2.90;78.90;;;;;;6210807;23;20025;-70
2024/01/07 01:37:56;;;;;;;11.05;5.45;;;2.90;78.90;;;;;;6235050;22;20025;-71
2024/01/07 01:40:23;;;;;;;12.25;6.32;;;2.90;79.00;;;;;;6232824;22;20060;-72
2024/01/07 01:42:50;;;;;;;11.47;5.50;;;2.90;79.20;;;;;;6234605;22;20025;-69
2024/01/07 01:45:18;;;;;;;10.77;5.30;;;2.90;79.20;;;;;;6210947;23;20017;-70
2024/01/07 01:47:48;;;;;;;11.57;5.75;;;2.90;79.10;;;;;;6234745;22;20529;-69
2024/01/07 01:50:14;;;;;;;13.38;5.70;;;2.90;78.90;;;;;;6209201;23;20022;-70
2024/01/07 01:52:42;;;;;;;12.05;5.72;;;2.90;79.00;;;;;;6184274;23;20148;-72
2024/01/07 01:55:09;;;;;;;11.47;5.43;;;2.90;79.20;;;;;;6234215;22;20037;-69
2024/01/07 01:57:39;;;;;;;11.52;5.38;;;2.90;79.20;;;;;;6182883;23;20020;-72
2024/01/07 02:00:08;;;;;;;9.57;5.07;;;2.90;79.00;;;;;;6209511;23;20056;-72
2024/01/07 02:02:35;;;;;;;11.02;4.88;;;2.90;78.70;;;;;;6182930;23;20915;-69
2024/01/07 02:05:04;;;;;;;10.38;5.60;;;2.90;78.70;;;;;;6233170;22;20111;-69
2024/01/07 02:07:32;;;;;;;10.23;4.23;;;2.90;78.70;;;;;;6208384;23;20025;-71
2024/01/07 02:10:00;;;;;;;9.93;4.90;;;2.90;78.60;;;;;;6233385;22;20422;-71
2024/01/07 02:12:27;;;;;;;10.45;5.57;;;2.80;78.60;;;;;;6182812;23;20103;-71
2024/01/07 02:14:54;;;;;;;10.45;5.45;;;2.80;78.70;;;;;;6212082;23;20084;-69
2024/01/07 02:17:22;;;;;;;9.65;5.00;;;2.80;78.60;;;;;;6212618;23;20029;-69
2024/01/07 02:19:50;;;;;;;10.20;5.73;;;2.80;78.30;;;;;;6184273;23;20033;-70
2024/01/07 02:22:19;;;;;;;10.20;5.18;;;2.80;78.00;;;;;;6231769;22;20021;-70
2024/01/07 02:24:47;;;;;;;10.27;4.95;;;2.80;78.10;;;;;;6233119;22;20024;-71
2024/01/07 02:27:15;;;;;;;10.55;5.85;;;2.80;78.10;;;;;;6231747;22;20055;-71
2024/01/07 02:29:42;;;;;;;11.45;5.57;;;2.80;78.40;;;;;;6231691;22;20025;-70
2024/01/07 02:32:09;;;;;;;11.87;5.10;;;2.80;78.20;;;;;;6230596;22;20076;-71
2024/01/07 02:34:35;;;;;;;12.23;5.05;;;2.80;78.20;;;;;;6206306;23;20053;-70
2024/01/07 02:37:03;;;;;;;9.85;5.38;;;2.80;78.10;;;;;;6204615;23;20076;-71
2024/01/07 02:39:30;;;;;;;12.45;4.85;;;2.80;78.20;;;;;;6229508;22;20029;-70
2024/01/07 02:41:58;;;;;;;10.32;5.07;;;2.70;78.40;;;;;;6204160;23;20071;-70
2024/01/07 02:44:25;;;;;;;9.83;4.50;;;2.70;78.50;;;;;;6180594;23;20509;-70
2024/01/07 02:46:52;;;;;;;10.52;4.78;;;2.80;78.30;;;;;;6180649;23;20021;-71
2024/01/07 02:49:19;;;;;;;9.15;4.60;;;2.70;77.90;;;;;;6232878;22;20029;-71
2024/01/07 02:51:49;;;;;;;10.10;5.03;;;2.70;78.00;;;;;;6181882;23;20041;-70
2024/01/07 02:54:16;;;;;;;11.52;5.40;;;2.70;78.10;;;;;;6233173;22;20506;-70
2024/01/07 02:56:43;;;;;;;9.60;5.17;;;2.70;78.20;;;;;;6232981;22;20063;-69
2024/01/07 02:59:12;;;;;;;11.25;5.30;;;2.70;78.10;;;;;;6233845;22;20052;-70
2024/01/07 03:01:40;;;;;;;10.02;5.13;;;2.70;78.30;;;;;;6234134;22;20417;-71
2024/01/07 03:04:08;;;;;;;8.00;4.60;;;2.70;78.10;;;;;;6233641;22;20032;-71
2024/01/07 03:06:35;;;;;;;8.45;3.90;;;2.70;78.20;;;;;;6234285;22;20446;-70
2024/01/07 03:09:02;;;;;;;9.17;4.20;;;2.70;78.10;;;;;;6234557;22;20025;-69
2024/01/07 03:11:30;;;;;;;8.85;4.25;;;2.70;78.30;;;;;;6234043;22;20088;-69
2024/01/07 03:13:57;;;;;;;10.13;4.07;;;2.70;78.20;;;;;;6211369;23;20371;-70
2024/01/07 03:16:26;;;;;;;9.05;4.55;;;2.70;78.20;;;;;;6234868;22;20100;-70
2024/01/07 03:18:53;;;;;;;10.65;4.38;;;2.70;78.10;;;;;;6234434;22;20092;-70
2024/01/07 03:21:22;;;;;;;8.93;4.20;;;2.60;77.80;;;;;;6233205;22;20056;-71
2024/01/07 03:23:50;;;;;;;9.65;4.78;;;2.60;78.40;;;;;;6234332;22;20032;-70
2024/01/07 03:26:18;;;;;;;9.98;4.40;;;2.60;78.50;;;;;;6210901;22;20052;-71
2024/01/07 03:28:45;;;;;;;9.20;3.65;;;2.60;78.30;;;;;;6210020;23;20463;-71
2024/01/07 03:31:14;;;;;;;8.65;3.97;;;2.60;78.30;;;;;;6209350;23;20045;-70
2024/01/07 03:33:43;;;;;;;8.73;4.00;;;2.60;78.40;;;;;;6233709;22;20613;-71
2024/01/07 03:36:11;;;;;;;8.43;4.25;;;2.60;78.30;;;;;;6234322;22;20025;-70
2024/01/07 03:38:38;;;;;;;11.48;4.20;;;2.50;77.90;;;;;;6210949;23;20164;-70
2024/01/07 03:41:06;;;;;;;8.65;4.25;;;2.50;77.90;;;;;;6232569;22;20029;-70
2024/01/07 03:43:33;;;;;;;9.18;4.20;;;2.50;77.90;;;;;;6210550;22;20021;-71
2024/01/07 03:46:00;;;;;;;8.30;3.67;;;2.50;78.20;;;;;;6232780;22;20027;-69
2024/01/07 03:48:27;;;;;;;8.55;3.88;;;2.50;78.20;;;;;;6232709;22;20025;-71
2024/01/07 03:50:55;;;;;;;7.97;3.78;;;2.50;77.80;;;;;;6208081;23;20100;-71
2024/01/07 03:53:23;;;;;;;8.70;3.60;;;2.50;77.80;;;;;;6210332;23;20056;-71
2024/01/07 03:55:50;;;;;;;8.95;3.78;;;2.50;77.90;;;;;;6209041;23;20795;-70
2024/01/07 03:58:17;;;;;;;7.73;3.63;;;2.40;77.70;;;;;;6232372;22;20088;-69
2024/01/07 04:00:44;;;;;;;7.60;3.60;;;2.40;77.60;;;;;;6232670;22;20025;-71
2024/01/07 04:03:11;;;;;;;8.50;3.85;;;2.40;77.70;;;;;;6233044;22;20076;-71
2024/01/07 04:05:38;;;;;;;6.72;3.33;;;2.40;77.80;;;;;;6232575;22;20320;-69
2024/01/07 04:08:10;;;;;;;7.82;3.78;;;2.40;77.80;;;;;;6233316;22;20036;-71
2024/01/07 04:10:37;;;;;;;8.20;3.30;;;2.40;77.70;;;;;;6231967;22;20025;-69
2024/01/07 04:13:05;;;;;;;7.85;3.22;;;2.40;78.10;;;;;;6229656;22;20418;-70
2024/01/07 04:15:32;;;;;;;6.07;2.78;;;2.40;78.60;;;;;;6207180;23;20313;-70
2024/01/07 04:18:02;;;;;;;6.32;2.83;;;2.40;78.70;;;;;;6229899;22;20104;-70
2024/01/07 04:20:29;;;;;;;8.02;3.20;;;2.40;77.80;;;;;;6230295;22;20446;-71
2024/01/07 04:22:56;;;;;;;7.57;3.20;;;2.40;78.00;;;;;;6229668;22;20055;-71
2024/01/07 04:25:25;;;;;;;7.25;3.10;;;2.40;77.90;;;;;;6206944;23;20032;-69
2024/01/07 04:27:52;;;;;;;9.00;3.45;;;2.40;77.10;;;;;;6233878;22;20390;-71
2024/01/07 04:30:19;;;;;;;6.82;3.17;;;2.40;77.40;;;;;;6233559;22;20059;-71
2024/01/07 04:32:46;;;;;;;7.50;3.00;;;2.30;77.40;;;;;;6234027;22;20084;-72
2024/01/07 04:35:13;;;;;;;6.73;3.03;;;2.30;77.40;;;;;;6183873;23;20052;-71
2024/01/07 04:37:40;;;;;;;6.68;2.92;;;2.30;77.40;;;;;;6232974;22;20096;-70
2024/01/07 04:40:08;;;;;;;7.20;3.28;;;2.30;77.40;;;;;;6208726;23;20493;-69
2024/01/07 04:42:36;;;;;;;7.03;3.30;;;2.30;78.30;;;;;;6210815;23;20692;-69
2024/01/07 04:45:03;;;;;;;6.68;2.67;;;2.30;78.30;;;;;;6182853;23;20064;-69
2024/01/07 04:47:33;;;;;;;7.43;3.10;;;2.30;78.20;;;;;;6209599;23;20049;-70
2024/01/07 04:50:01;;;;;;;8.02;2.88;;;2.30;78.00;;;;;;6209988;23;20048;-70
2024/01/07 04:52:28;;;;;;;5.93;2.60;;;2.30;78.20;;;;;;6209771;23;20080;-71
2024/01/07 04:54:55;;;;;;;7.47;2.85;;;2.40;77.60;;;;;;6209866;23;20056;-69
2024/01/07 04:57:23;;;;;;;5.75;2.25;;;2.30;77.50;;;;;;6232399;22;20108;-71
2024/01/07 04:59:51;;;;;;;6.73;2.60;;;2.30;77.80;;;;;;6210123;23;20123;-69
2024/01/07 05:02:18;;;;;;;6.55;2.50;;;2.40;77.40;;;;;;6233437;22;20017;-71
2024/01/07 05:04:45;;;;;;;7.20;2.70;;;2.40;77.30;;;;;;6208391;23;20025;-70
2024/01/07 05:07:12;;;;;;;5.57;2.50;;;2.30;77.00;;;;;;6233638;22;20029;-71
2024/01/07 05:09:40;;;;;;;7.32;2.50;;;2.30;76.90;;;;;;6233761;22;20228;-70
2024/01/07 05:12:07;;;;;;;6.57;2.20;;;2.30;77.20;;;;;;6233436;22;20021;-71
2024/01/07 05:14:34;;;;;;;5.80;2.15;;;2.30;76.80;;;;;;6233519;22;20228;-71
2024/01/07 05:17:03;;;;;;;6.68;2.60;;;2.30;77.40;;;;;;6233607;22;20083;-72
2024/01/07 05:19:30;;;;;;;8.10;2.70;;;2.30;77.70;;;;;;6233991;22;20017;-69
2024/01/07 05:21:57;;;;;;;6.20;2.40;;;2.30;77.60;;;;;;6233326;22;20056;-70
2024/01/07 05:24:25;;;;;;;5.37;1.90;;;2.30;77.30;;;;;;6233506;22;20029;-72
2024/01/07 05:26:52;;;;;;;5.78;2.35;;;2.40;77.10;;;;;;6234572;22;20375;-69
2024/01/07 05:29:19;;;;;;;5.95;2.20;;;2.40;76.50;;;;;;6211085;23;20056;-71
2024/01/07 05:31:46;;;;;;;5.85;2.00;;;2.30;75.70;;;;;;6233555;22;20021;-71
2024/01/07 05:34:14;;;;;;;4.13;1.60;;;2.30;76.20;;;;;;6233321;22;20088;-70
2024/01/07 05:36:41;;;;;;;5.73;2.10;;;2.30;76.70;;;;;;6210394;23;20172;-70
2024/01/07 05:39:08;;;;;;;4.97;1.95;;;2.30;77.00;;;;;;6233924;22;20116;-70
2024/01/07 05:41:37;;;;;;;6.18;2.00;;;2.30;76.50;;;;;;6233295;22;20073;-70
2024/01/07 05:44:07;;;;;;;5.38;1.60;;;2.30;75.90;;;;;;6233892;22;20028;-70
2024/01/07 05:46:34;;;;;;;5.72;1.92;;;2.30;76.70;;;;;;6233494;22;20075;-71
2024/01/07 05:49:01;;;;;;;5.97;1.70;;;2.30;76.70;;;;;;6208584;23;20055;-70
2024/01/07 05:51:29;;;;;;;4.55;1.60;;;2.40;76.40;;;;;;6233328;22;20028;-71
2024/01/07 05:53:56;;;;;;;5.75;2.20;;;2.30;76.30;;;;;;6234413;22;20149;-72
2024/01/07 05:56:23;;;;;;;4.85;1.75;;;2.30;75.10;;;;;;6209189;23;20088;-68
2024/01/07 05:58:50;;;;;;;5.25;1.98;;;2.30;76.00;;;;;;6234972;22;20037;-70
2024/01/07 06:01:20;;;;;;;5.67;2.03;;;2.30;76.10;;;;;;6233953;22;20355;-69
2024/01/07 06:03:47;;;;;;;4.60;1.80;;;2.30;76.20;;;;;;6211883;23;20021;-71
2024/01/07 06:06:15;;;;;;;5.50;1.80;;;2.30;76.70;;;;;;6234243;22;20140;-70
2024/01/07 06:08:43;;;;;;;5.25;1.70;;;2.30;75.80;;;;;;6234307;22;20104;-69
2024/01/07 06:11:15;;;;;;;5.13;1.80;;;2.30;76.50;;;;;;6210605;23;20028;-70
2024/01/07 06:13:42;;;;;;;4.60;1.50;;;2.30;76.30;;;;;;6234941;22;21120;-69
2024/01/07 06:16:09;;;;;;;5.35;1.73;;;2.40;76.60;;;;;;6211350;23;20056;-71
2024/01/07 06:18:36;;;;;;;5.13;1.60;;;2.40;76.40;;;;;;6234694;22;20057;-70
2024/01/07 06:21:03;;;;;;;4.05;1.50;;;2.40;76.60;;;;;;6234362;22;20021;-69
2024/01/07 06:23:33;;;;;;;4.82;1.60;;;2.50;76.40;;;;;;6234945;22;20072;-71
2024/01/07 06:26:03;;;;;;;3.97;1.17;;;2.50;76.60;;;;;;6233270;22;20327;-69
2024/01/07 06:28:30;;;;;;;4.38;1.27;;;2.50;76.40;;;;;;6233204;22;20048;-71
2024/01/07 06:30:57;;;;;;;4.40;1.50;;;2.50;76.20;;;;;;6233570;22;20024;-71
2024/01/07 06:33:24;;;;;;;4.43;1.23;;;2.50;75.60;;;;;;6210206;23;20061;-69
2024/01/07 06:35:51;;;;;;;3.75;1.17;;;2.50;76.20;;;;;;6210605;23;20029;-71
2024/01/07 06:38:18;;;;;;;3.17;0.90;;;2.50;75.70;;;;;;6210889;23;20029;-69
2024/01/07 06:40:45;;;;;;;3.05;1.00;;;2.50;75.50;;;;;;6210437;23;20108;-70
2024/01/07 06:43:13;;;;;;;4.32;1.00;;;2.40;75.20;;;;;;6182290;23;20550;-70
2024/01/07 06:45:40;;;;;;;3.80;1.05;;;2.40;75.30;;;;;;6233597;22;20421;-70
2024/01/07 06:48:08;;;;;;;3.80;1.40;;;2.40;74.80;;;;;;6233855;22;20052;-71
2024/01/07 06:50:35;;;;;;;3.87;1.00;;;2.30;74.70;;;;;;6233337;22;20697;-70
2024/01/07 06:53:02;;;;;;;3.80;1.02;;;2.30;76.00;;;;;;6233207;22;20132;-70
2024/01/07 06:55:29;;;;;;;4.43;1.20;;;2.40;75.50;;;;;;6235990;22;20498;-70
2024/01/07 06:57:56;;;;;;;4.60;1.00;;;2.40;75.30;;;;;;6238206;22;20573;-71
2024/01/07 07:00:24;;;;;;;3.70;1.00;;;2.40;75.30;;;;;;6209109;23;20092;-70
2024/01/07 07:02:51;;;;;;;3.07;1.00;;;2.40;75.10;;;;;;6233424;22;20028;-71
2024/01/07 07:05:18;;;;;;;4.43;1.00;;;2.40;74.90;;;;;;6233192;22;20355;-71
2024/01/07 07:07:45;;;;;;;3.72;1.00;;;2.40;75.00;;;;;;6233040;22;20072;-71
2024/01/07 07:10:13;;;;;;;3.38;1.10;;;2.40;74.80;;;;;;6232078;22;20024;-71
2024/01/07 07:12:39;;;;;;;4.50;1.10;;;2.40;74.30;;;;;;6211110;22;20238;-71
2024/01/07 07:15:09;;;;;;;3.97;1.00;;;2.40;74.70;;;;;;6210370;23;20051;-71
2024/01/07 07:17:39;;;;;;;2.50;0.70;;;2.40;76.30;;;;;;6233670;22;20025;-71
2024/01/07 07:20:07;;;;;;;3.65;1.02;;;2.40;76.00;;;;;;6233217;22;20096;-68
2024/01/07 07:22:34;;;;;;;3.55;1.10;;;2.40;74.80;;;;;;6182583;23;20025;-71
2024/01/07 07:25:02;;;;;;;3.20;0.90;;;2.40;75.50;;;;;;6232956;22;20068;-71
2024/01/07 07:27:29;;;;;;;4.23;1.17;;;2.40;74.70;;;;;;6231391;22;20036;-71
2024/01/07 07:29:56;;;;;;;3.70;1.02;;;2.40;75.30;;;;;;6232009;22;20037;-69
2024/01/07 07:32:23;;;;;;;4.43;1.10;;;2.40;74.80;;;;;;6230681;22;20076;-72
2024/01/07 07:34:51;;;;;;;3.35;1.00;;;2.40;74.60;;;;;;6207612;23;20025;-69
2024/01/07 07:37:18;;;;;;;3.40;0.85;;;2.40;75.00;;;;;;6230702;22;20729;-70
2024/01/07 07:39:45;;;;;;;3.53;1.00;;;2.30;74.60;;;;;;6230787;22;20021;-72
2024/01/07 07:42:12;;;;;;;3.67;0.90;;;2.40;74.60;;;;;;6232034;22;20060;-70
2024/01/07 07:44:40;;;;;;;4.50;0.98;;;2.30;73.50;;;;;;6229050;22;20123;-71
2024/01/07 07:47:07;;;;;;;3.25;0.95;;;2.20;73.00;;;;;;6180993;23;20055;-70
2024/01/07 07:49:35;;;;;;;4.53;1.30;;;2.10;73.00;;;;;;6178303;23;20087;-70
2024/01/07 07:52:04;;;;;;;3.73;0.90;;;2.00;72.70;;;;;;6228886;22;20025;-70
2024/01/07 07:54:31;;;;;;;3.50;1.10;;;2.00;73.10;;;;;;6176973;23;20029;-69
2024/01/07 07:56:58;;;;;;;4.68;0.80;;;1.90;73.40;;;;;;6177772;23;20132;-69
2024/01/07 07:59:25;;;;;;;3.50;0.73;;;1.90;72.50;;;;;;6206227;23;20450;-70
2024/01/07 08:01:52;;;;;;;3.22;0.80;;;1.80;72.50;;;;;;6227633;22;20028;-69
2024/01/07 08:04:19;;;;;;;3.57;0.83;;;1.70;72.70;;;;;;6230564;22;20096;-71
2024/01/07 08:06:46;;;;;;;3.42;0.70;;;1.70;72.80;;;;;;6208339;23;20025;-71
2024/01/07 08:09:15;;;;;;;4.30;0.95;;;1.60;72.60;;;;;;6210234;23;20387;-70
2024/01/07 08:11:42;;;;;;;3.70;0.80;;;1.60;73.50;;;;;;6231528;22;20021;-71
2024/01/07 08:14:09;;;;;;;3.75;0.85;;;1.60;73.40;;;;;;6233484;22;20181;-70
2024/01/07 08:16:36;;;;;;;4.80;0.90;;;1.50;73.50;;;;;;6208464;23;20084;-71
2024/01/07 08:19:03;;;;;;;3.58;0.70;;;1.60;74.10;;;;;;6207125;23;20319;-68
2024/01/07 08:21:30;;;;;;;4.35;0.98;;;1.60;73.30;;;;;;6207809;22;20462;-69
2024/01/07 08:23:57;;;;;;;3.45;0.90;;;1.60;73.30;;;;;;6232271;22;20352;-71
2024/01/07 08:26:25;;;;;;;4.53;1.10;;;1.50;73.10;;;;;;6181795;23;20084;-70
2024/01/07 08:28:52;;;;;;;3.07;0.90;;;1.50;72.90;;;;;;6232231;22;20021;-70
2024/01/07 08:31:19;;;;;;;4.03;0.90;;;1.50;73.00;;;;;;6209766;23;20029;-71
2024/01/07 08:33:46;;;;;;;4.25;0.70;;;1.50;74.60;;;;;;6233467;22;20049;-71
2024/01/07 08:36:13;;;;;;;3.85;0.70;;;1.50;74.70;;;;;;6232728;22;20532;-70
2024/01/07 08:38:40;;;;;;;3.03;0.93;;;1.50;74.40;;;;;;6231212;22;20478;-68
2024/01/07 08:41:07;;;;;;;3.70;0.83;;;1.60;74.40;;;;;;6208792;23;20025;-70
2024/01/07 08:43:36;;;;;;;3.38;0.70;;;1.60;73.80;;;;;;6207030;23;20088;-69
2024/01/07 08:46:05;;;;;;;3.40;0.73;;;1.60;73.50;;;;;;6232143;22;20370;-69
2024/01/07 08:48:32;;;;;;;3.83;0.90;;;1.60;73.30;;;;;;6231449;22;20036;-70
2024/01/07 08:50:59;;;;;;;4.30;0.80;;;1.60;72.90;;;;;;6207071;23;20188;-71
2024/01/07 08:53:26;;;;;;;3.37;0.90;;;1.50;73.10;;;;;;6231271;22;20425;-68
2024/01/07 08:55:53;;;;;;;4.07;0.90;;;1.50;74.00;;;;;;6232800;22;20426;-69
2024/01/07 08:58:20;;;;;;;4.80;1.10;;;1.60;74.90;;;;;;6233527;22;20557;-68
2024/01/07 09:00:49;;;;;;;3.10;0.88;;;1.60;74.30;;;;;;6229531;22;20314;-71
2024/01/07 09:03:16;;;;;;;4.35;0.80;;;1.60;75.50;;;;;;6233942;22;20439;-71
2024/01/07 09:05:43;;;;;;;4.07;0.80;;;1.70;74.70;;;;;;6230720;22;20080;-71
2024/01/07 09:08:11;;;;;;;2.83;0.80;;;1.70;74.40;;;;;;6207035;23;20128;-69
2024/01/07 09:10:38;;;;;;;3.00;0.80;;;1.70;74.70;;;;;;6228586;22;20407;-70
2024/01/07 09:13:05;;;;;;;3.22;0.60;;;1.70;73.50;;;;;;6228557;22;20060;-69
2024/01/07 09:15:32;;;;;;;5.05;0.80;;;1.70;73.20;;;;;;6229604;22;20025;-70
2024/01/07 09:18:00;;;;;;;3.53;0.70;;;1.70;72.80;;;;;;6230647;22;20027;-69
2024/01/07 09:20:27;;;;;;;3.38;0.80;;;1.70;73.20;;;;;;6207130;23;20268;-70
2024/01/07 09:22:54;;;;;;;3.50;0.80;;;1.70;72.90;;;;;;6231739;22;20088;-71
2024/01/07 09:25:21;;;;;;;3.60;0.70;;;1.60;72.50;;;;;;6208446;23;20466;-69
2024/01/07 09:27:48;;;;;;;3.70;0.65;;;1.60;72.40;;;;;;6209140;22;20080;-71
2024/01/07 09:30:15;;;;;;;3.13;0.60;;;1.60;72.90;;;;;;6207554;23;20375;-71
2024/01/07 09:32:42;;;;;;;2.83;0.77;;;1.60;73.00;;;;;;6233843;22;20021;-71
2024/01/07 09:35:11;;;;;;;2.67;0.60;;;1.50;72.60;;;;;;6233103;22;20085;-70
2024/01/07 09:37:38;;;;;;;5.00;0.90;;;1.50;72.50;;;;;;6210220;23;20162;-71
2024/01/07 09:40:06;;;;;;;4.38;0.70;;;1.50;72.50;;;;;;6181728;23;20029;-68
2024/01/07 09:42:33;;;;;;;2.83;0.60;;;1.50;72.80;;;;;;6209611;22;20221;-71
2024/01/07 09:45:04;;;;;;;3.88;0.88;;;1.50;72.50;;;;;;6232278;22;20060;-69
2024/01/07 09:47:31;;;;;;;4.05;0.70;;;1.50;72.70;;;;;;6233389;22;20437;-71
2024/01/07 09:49:58;;;;;;;4.13;0.90;;;1.50;72.60;;;;;;6234077;22;20101;-71
2024/01/07 09:52:27;;;;;;;2.42;0.52;;;1.50;73.00;;;;;;6208330;23;20029;-71
2024/01/07 09:54:59;;;;;;;3.63;0.80;;;1.50;73.30;;;;;;6209856;23;20411;-70
2024/01/07 09:57:26;;;;;;;2.53;0.75;;;1.50;73.10;;;;;;6234206;22;20423;-70
2024/01/07 09:59:53;;;;;;;2.95;0.70;;;1.50;73.00;;;;;;6233861;22;20079;-69
2024/01/07 10:02:22;;;;;;;3.00;0.65;;;1.60;73.50;;;;;;6233365;22;20116;-71
2024/01/07 10:04:49;;;;;;;2.75;0.40;;;1.60;73.40;;;;;;6232481;22;20466;-70
2024/01/07 10:07:17;;;;;;;3.00;0.50;;;1.70;72.60;;;;;;6210017;23;20025;-71
2024/01/07 10:09:45;;;;;;;3.03;0.50;;;1.70;72.60;;;;;;6182670;23;20035;-71
2024/01/07 10:12:13;;;;;;;3.38;0.50;;;1.70;72.10;;;;;;6209155;23;20206;-71
2024/01/07 10:14:41;;;;;;;2.28;0.40;;;1.70;71.10;;;;;;6233762;22;20481;-71
2024/01/07 10:17:16;;;;;;;2.78;0.60;;;1.60;71.20;;;;;;6233501;22;20031;-71
2024/01/07 10:19:44;;;;;;;2.97;0.50;;;1.60;71.30;;;;;;6232684;22;20674;-71
2024/01/07 10:22:14;;;;;;;2.97;0.60;;;1.60;71.70;;;;;;6232995;22;20032;-70
2024/01/07 10:24:43;;;;;;;2.55;0.70;;;1.60;71.70;;;;;;6234313;22;20402;-71
2024/01/07 10:27:12;;;;;;;4.03;0.80;;;1.60;72.00;;;;;;6182316;23;20421;-71
2024/01/07 10:29:40;;;;;;;3.28;0.60;;;1.70;72.60;;;;;;6182990;23;20017;-70
2024/01/07 10:32:07;;;;;;;4.93;0.80;;;1.80;73.20;;;;;;6181796;23;20061;-70
2024/01/07 10:34:36;;;;;;;3.00;0.50;;;1.80;72.60;;;;;;6209833;22;20088;-71
2024/01/07 10:37:04;;;;;;;2.08;0.40;;;1.80;72.40;;;;;;6232932;22;20028;-69
2024/01/07 10:39:31;;;;;;;3.13;0.60;;;1.90;73.10;;;;;;6233367;22;20017;-70
2024/01/07 10:41:59;;;;;;;3.05;0.57;;;1.90;72.90;;;;;;6233137;22;20556;-70
2024/01/07 10:44:28;;;;;;;3.10;0.50;;;1.90;72.90;;;;;;6233875;22;20028;-70
2024/01/07 10:46:56;;;;;;;4.90;0.90;;;1.90;72.80;;;;;;6210660;23;20024;-70
2024/01/07 10:49:25;;;;;;;3.85;0.80;;;1.90;73.20;;;;;;6210406;23;20462;-70
2024/01/07 10:52:03;;;;;;;3.53;0.65;;;2.00;73.30;;;;;;6232769;22;20028;-70
2024/01/07 10:54:33;;;;;;;2.50;0.50;;;2.00;72.70;;;;;;6209775;23;20031;-70
2024/01/07 10:57:03;;;;;;;3.13;0.60;;;2.10;72.90;;;;;;6208878;23;20024;-70
2024/01/07 10:59:34;;;;;;;4.35;0.80;;;2.00;72.20;;;;;;6210171;23;20021;-71
2024/01/07 11:02:03;;;;;;;3.80;0.90;;;2.00;71.80;;;;;;6182998;23;20363;-69
2024/01/07 11:04:38;;;;;;;3.35;0.60;;;2.00;72.00;;;;;;6234413;22;20021;-69
2024/01/07 11:07:25;;;;;;;3.38;0.80;;;2.00;71.80;;;;;;6233396;22;20040;-69
2024/01/07 11:10:03;;;;;;;3.40;0.60;;;2.00;72.80;;;;;;6230760;22;20052;-69
2024/01/07 11:12:32;;;;;;;3.78;0.68;;;2.10;72.30;;;;;;6205073;23;20100;-69
2024/01/07 11:15:00;;;;;;;3.85;0.70;;;2.10;72.60;;;;;;6173601;23;20025;-69
2024/01/07 11:17:45;;;;;;;3.55;0.77;;;2.10;72.60;;;;;;6205127;23;20032;-70
2024/01/07 11:20:18;;;;;;;3.95;0.70;;;2.10;72.70;;;;;;6204058;23;20048;-69
2024/01/07 11:22:46;;;;;;;3.97;0.80;;;2.10;73.00;;;;;;6180944;23;20055;-70
2024/01/07 11:25:32;;;;;;;3.50;0.60;;;2.20;72.80;;;;;;6230873;22;20115;-70
2024/01/07 11:28:01;;;;;;;3.53;0.90;;;2.20;73.30;;;;;;6231437;22;20576;-70
2024/01/07 11:30:30;;;;;;;3.30;0.70;;;2.30;72.80;;;;;;6181800;23;20029;-70
2024/01/07 11:33:01;;;;;;;3.35;0.80;;;2.30;72.80;;;;;;6234047;22;20029;-69
2024/01/07 11:35:57;;;;;;;2.90;0.73;;;2.30;72.10;;;;;;6232586;22;20044;-70
2024/01/07 11:38:24;;;;;;;3.78;0.80;;;2.30;72.80;;;;;;6210786;22;20025;-70
2024/01/07 11:40:52;;;;;;;2.95;0.88;;;2.30;72.80;;;;;;6182985;23;20812;-70
2024/01/07 11:43:19;;;;;;;3.63;1.00;;;2.40;73.00;;;;;;6183776;23;20017;-70
2024/01/07 11:45:50;;;;;;;3.42;0.90;;;2.40;72.40;;;;;;6210486;23;20801;-69
2024/01/07 11:48:17;;;;;;;3.67;0.67;;;2.50;73.70;;;;;;6234595;22;20074;-70
2024/01/07 11:50:45;;;;;;;3.70;0.65;;;2.50;73.00;;;;;;6210395;23;20021;-70
2024/01/07 11:53:12;;;;;;;3.42;0.70;;;2.50;73.10;;;;;;6234508;22;20712;-70
2024/01/07 11:55:40;;;;;;;3.67;0.68;;;2.60;72.60;;;;;;6182655;23;20021;-70
2024/01/07 11:58:07;;;;;;;5.05;1.13;;;2.70;72.40;;;;;;6234587;22;20021;-70
2024/01/07 12:00:34;;;;;;;1.70;0.37;;;2.70;72.30;;;;;;6233618;22;20108;-70
2024/01/07 12:03:04;;;;;;;3.22;0.90;;;2.70;72.20;;;;;;6184770;23;20157;-71
2024/01/07 12:05:31;;;;;;;3.70;0.82;;;2.80;72.20;;;;;;6182066;23;20024;-70
2024/01/07 12:07:58;;;;;;;4.80;0.93;;;2.90;71.70;;;;;;6182155;23;20091;-70
2024/01/07 12:10:25;;;;;;;3.33;0.90;;;2.90;71.60;;;;;;6182544;23;20029;-70
2024/01/07 12:12:53;;;;;;;3.87;0.90;;;2.90;71.50;;;;;;6233848;22;20115;-70
2024/01/07 12:15:23;;;;;;;2.80;0.80;;;3.00;71.60;;;;;;6185474;23;20041;-70
2024/01/07 12:17:58;;;;;;;3.53;0.98;;;3.00;71.50;;;;;;6186358;23;20033;-71
2024/01/07 12:20:26;;;;;;;3.25;1.05;;;3.10;71.80;;;;;;6213399;23;20029;-70
2024/01/07 12:22:57;;;;;;;3.25;1.02;;;3.10;72.80;;;;;;6235489;22;20061;-70
2024/01/07 12:25:24;;;;;;;6.40;1.90;;;3.30;71.90;;;;;;6236475;22;20021;-70
2024/01/07 12:27:53;;;;;;;3.60;1.10;;;3.30;71.60;;;;;;6208971;23;20520;-70
2024/01/07 12:30:21;;;;;;;3.85;1.00;;;3.30;70.80;;;;;;6230805;22;20775;-70
2024/01/07 12:32:48;;;;;;;5.15;1.10;;;3.40;70.70;;;;;;6207850;23;20727;-69
2024/01/07 12:35:15;;;;;;;4.32;1.80;;;3.40;70.70;;;;;;6232412;22;20055;-73
2024/01/07 12:37:45;;;;;;;5.53;1.13;;;3.50;70.70;;;;;;6231697;22;20537;-71
2024/01/07 12:40:13;;;;;;;4.55;1.20;;;3.50;70.80;;;;;;6232841;22;20032;-71
2024/01/07 12:42:44;;;;;;;5.05;1.17;;;3.50;70.30;;;;;;6232420;22;20052;-69
2024/01/07 12:45:14;;;;;;;4.43;1.20;;;3.50;70.10;;;;;;6207597;23;20517;-70
2024/01/07 12:47:42;;;;;;;4.30;1.40;;;3.50;69.70;;;;;;6232413;22;20025;-73
2024/01/07 12:50:10;;;;;;;3.40;1.10;;;3.60;70.20;;;;;;6231196;22;20027;-72
2024/01/07 12:52:38;;;;;;;4.43;1.10;;;3.60;70.00;;;;;;6204482;23;20393;-72
2024/01/07 12:55:07;;;;;;;3.80;1.35;;;3.60;70.40;;;;;;6207800;23;20048;-71
2024/01/07 12:57:35;;;;;;;5.15;1.48;;;3.60;70.00;;;;;;6232623;22;20017;-71
2024/01/07 13:00:03;;;;;;;6.15;1.50;;;3.70;69.90;;;;;;6230399;22;20148;-72